Time;durP1;ratioP1;P1;durP2;ratioP2;P2;SDS_P1;SDS_P2;PMS_P1;PMS_P2;Temp;Humidity;BMP_temperature;BMP_pressure;BME280_temperature;BME280_humidity;BME280_pressure;Samples;Min_cycle;Max_cycle;Signal;HPM_P1;HPM_P2
2023/12/14 00:01:27;;;;;;;1.83;1.60;;;;;;;10.94;61.67;96392.75;5041845;28;20452;-70
2023/12/14 00:03:52;;;;;;;3.30;1.70;;;;;;;10.98;61.45;96394.84;5030175;28;20859;-70
2023/12/14 00:06:18;;;;;;;2.10;1.43;;;;;;;11.05;60.91;96397.59;5038318;28;20282;-72
2023/12/14 00:08:43;;;;;;;3.87;1.63;;;;;;;11.02;60.40;96405.78;5036193;28;20709;-72
2023/12/14 00:11:10;;;;;;;2.30;1.80;;;;;;;11.04;60.59;96409.06;5024191;28;20290;-71
2023/12/14 00:13:36;;;;;;;2.57;2.10;;;;;;;11.07;60.55;96413.97;5029901;28;20289;-71
2023/12/14 00:16:02;;;;;;;2.30;1.60;;;;;;;11.09;60.71;96419.03;5033786;28;20438;-71
2023/12/14 00:18:27;;;;;;;2.83;1.90;;;;;;;11.11;60.25;96423.09;5037279;28;20816;-71
2023/12/14 00:20:53;;;;;;;3.73;2.10;;;;;;;11.12;60.13;96422.09;5023425;28;20581;-71
2023/12/14 00:23:19;;;;;;;2.70;1.90;;;;;;;11.15;60.39;96426.22;5027891;28;20191;-71
2023/12/14 00:25:45;;;;;;;4.43;2.73;;;;;;;11.15;60.46;96424.38;5018786;28;20441;-71
2023/12/14 00:28:10;;;;;;;4.00;2.30;;;;;;;11.09;60.88;96427.69;5015260;28;20446;-71
2023/12/14 00:30:36;;;;;;;2.47;2.00;;;;;;;11.11;60.96;96436.19;5029665;28;20347;-73
2023/12/14 00:33:02;;;;;;;3.57;2.00;;;;;;;11.07;61.51;96429.69;5020765;28;20203;-71
2023/12/14 00:35:27;;;;;;;3.00;2.17;;;;;;;11.04;61.37;96425.59;5028044;28;20196;-71
2023/12/14 00:37:52;;;;;;;6.10;1.83;;;;;;;11.04;61.45;96427.41;5023837;28;20235;-73
2023/12/14 00:40:18;;;;;;;5.53;1.90;;;;;;;11.02;61.12;96429.38;5009101;28;20224;-71
2023/12/14 00:42:43;;;;;;;2.73;1.90;;;;;;;10.99;61.29;96432.34;5018377;28;20301;-71
2023/12/14 00:45:09;;;;;;;3.63;1.87;;;;;;;11.01;61.08;96433.84;5023156;28;20274;-70
2023/12/14 00:47:34;;;;;;;3.83;1.90;;;;;;;11.03;61.61;96438.91;5020624;28;20669;-73
2023/12/14 00:50:00;;;;;;;2.20;1.90;;;;;;;10.92;61.53;96437.47;5031122;28;20207;-70
2023/12/14 00:52:25;;;;;;;4.90;2.20;;;;;;;11.00;61.57;96447.09;4992563;28;20195;-72
2023/12/14 00:54:51;;;;;;;5.17;2.20;;;;;;;10.94;61.09;96445.97;5022965;28;20270;-74
2023/12/14 00:57:16;;;;;;;2.33;2.00;;;;;;;10.91;61.33;96456.81;5026237;28;20188;-70
2023/12/14 00:59:42;;;;;;;2.10;1.90;;;;;;;10.86;61.24;96459.94;5021433;28;20220;-73
2023/12/14 01:02:07;;;;;;;2.00;1.50;;;;;;;10.94;61.02;96466.97;5039533;28;20753;-72
2023/12/14 01:04:33;;;;;;;4.93;2.10;;;;;;;10.93;61.04;96475.00;5022713;28;20286;-71
2023/12/14 01:06:58;;;;;;;5.13;1.67;;;;;;;10.99;60.43;96471.69;5036206;28;20214;-73
2023/12/14 01:09:23;;;;;;;2.00;1.57;;;;;;;11.01;60.46;96473.16;5024674;28;20571;-71
2023/12/14 01:11:49;;;;;;;1.77;1.27;;;;;;;11.04;60.41;96478.03;5030643;28;20195;-72
2023/12/14 01:14:14;;;;;;;2.13;1.90;;;;;;;11.01;60.35;96482.81;5023872;28;20282;-70
2023/12/14 01:16:40;;;;;;;3.53;1.83;;;;;;;11.00;60.70;96483.81;5034358;28;20206;-71
2023/12/14 01:19:06;;;;;;;2.83;1.67;;;;;;;11.00;61.32;96489.03;5028366;28;20755;-70
2023/12/14 01:21:32;;;;;;;4.40;1.60;;;;;;;10.91;61.78;96494.34;5032098;28;20449;-72
2023/12/14 01:23:58;;;;;;;2.83;1.50;;;;;;;10.93;61.92;96496.78;5025921;28;20198;-70
2023/12/14 01:26:23;;;;;;;2.00;1.90;;;;;;;10.96;61.58;96503.50;5017499;28;20475;-70
2023/12/14 01:28:49;;;;;;;2.70;1.50;;;;;;;10.97;61.37;96507.72;5027355;28;20183;-70
2023/12/14 01:31:14;;;;;;;3.00;1.40;;;;;;;10.88;61.43;96509.59;5015451;28;20305;-71
2023/12/14 01:33:40;;;;;;;3.43;1.87;;;;;;;10.92;61.67;96513.50;5025999;28;20289;-72
2023/12/14 01:36:05;;;;;;;4.20;1.43;;;;;;;10.95;61.17;96513.16;5026096;28;20196;-73
2023/12/14 01:38:31;;;;;;;3.57;1.53;;;;;;;11.02;60.59;96516.75;5026868;28;20195;-72
2023/12/14 01:40:56;;;;;;;5.57;1.50;;;;;;;10.99;60.78;96521.50;5023624;28;20239;-70
2023/12/14 01:43:21;;;;;;;3.73;1.40;;;;;;;10.99;61.00;96521.50;5017412;28;20242;-72
2023/12/14 01:45:47;;;;;;;4.00;1.60;;;;;;;10.95;61.36;96530.72;5029738;28;20192;-73
2023/12/14 01:48:12;;;;;;;3.33;1.53;;;;;;;10.90;61.63;96542.50;5016232;28;20196;-72
2023/12/14 01:50:38;;;;;;;6.13;2.60;;;;;;;10.96;61.33;96537.59;5023642;28;20255;-72
2023/12/14 01:53:03;;;;;;;2.47;2.27;;;;;;;10.96;61.44;96542.84;5025983;28;20188;-74
2023/12/14 01:55:29;;;;;;;3.60;1.73;;;;;;;10.89;61.69;96538.25;5030919;28;20204;-72
2023/12/14 01:57:54;;;;;;;3.10;2.00;;;;;;;10.89;62.06;96548.75;5024722;28;20332;-72
2023/12/14 02:00:45;;;;;;;3.40;1.87;;;;;;;10.98;62.17;96546.06;5026076;28;20219;-73
2023/12/14 02:03:10;;;;;;;2.03;1.80;;;;;;;10.97;61.97;96549.69;5017836;28;20268;-72
2023/12/14 02:05:36;;;;;;;3.23;2.10;;;;;;;10.97;62.49;96554.94;5040397;28;20435;-72
2023/12/14 02:08:01;;;;;;;2.20;2.00;;;;;;;10.98;62.29;96552.16;5025544;28;20873;-71
2023/12/14 02:10:27;;;;;;;2.13;1.93;;;;;;;10.98;62.17;96564.44;5031090;28;20223;-71
2023/12/14 02:12:52;;;;;;;3.13;2.17;;;;;;;10.92;62.15;96558.06;5031989;28;20267;-72
2023/12/14 02:15:18;;;;;;;2.77;1.80;;;;;;;10.94;61.93;96565.78;5030787;28;20763;-71
2023/12/14 02:17:43;;;;;;;2.23;2.03;;;;;;;10.99;61.95;96568.69;5030846;28;20694;-71
2023/12/14 02:20:09;;;;;;;2.17;1.60;;;;;;;11.02;60.78;96565.72;5032264;28;20348;-72
2023/12/14 02:22:52;;;;;;;1.60;1.40;;;;;;;11.00;61.01;96570.31;5028646;28;20228;-69
2023/12/14 02:25:21;;;;;;;2.47;1.60;;;;;;;10.97;60.78;96575.91;5022713;28;20733;-72
2023/12/14 02:27:48;;;;;;;3.27;1.53;;;;;;;10.93;61.02;96574.63;5032029;28;20450;-73
2023/12/14 02:30:13;;;;;;;1.90;1.50;;;;;;;10.91;60.91;96577.41;5031995;28;20799;-72
2023/12/14 02:32:39;;;;;;;1.90;1.37;;;;;;;10.87;61.06;96587.41;5012855;28;20484;-74
2023/12/14 02:35:06;;;;;;;2.80;1.40;;;;;;;10.89;60.85;96582.81;5031079;28;20203;-72
2023/12/14 02:37:32;;;;;;;2.80;1.47;;;;;;;10.88;61.26;96583.81;5019545;28;20482;-72
2023/12/14 02:39:57;;;;;;;3.73;2.63;;;;;;;10.80;61.86;96583.00;5034213;28;20478;-73
2023/12/14 02:42:23;;;;;;;8.00;2.40;;;;;;;10.81;62.13;96585.47;5017095;28;20913;-71
2023/12/14 02:44:49;;;;;;;2.53;2.30;;;;;;;10.85;62.41;96588.56;5030128;28;20283;-71
2023/12/14 02:47:14;;;;;;;2.93;2.60;;;;;;;10.83;61.94;96590.53;5019045;28;20192;-71
2023/12/14 02:49:41;;;;;;;4.97;2.03;;;;;;;10.84;62.51;96592.19;5033367;28;20841;-73
2023/12/14 02:52:07;;;;;;;4.50;1.80;;;;;;;10.89;62.50;96592.50;5023607;28;20206;-73
2023/12/14 02:54:32;;;;;;;7.90;2.60;;;;;;;10.94;62.38;96594.63;5025394;28;20425;-72
2023/12/14 02:56:57;;;;;;;3.93;1.90;;;;;;;10.91;62.49;96599.19;5020354;28;20196;-71
2023/12/14 02:59:23;;;;;;;3.30;1.80;;;;;;;10.95;62.47;96598.88;5026053;28;20210;-71
2023/12/14 03:01:48;;;;;;;1.83;1.50;;;;;;;10.91;62.28;96603.63;5045505;28;20783;-70
2023/12/14 03:04:14;;;;;;;2.23;1.60;;;;;;;10.88;62.32;96599.53;5031250;28;20275;-70
2023/12/14 03:06:39;;;;;;;2.10;1.90;;;;;;;10.86;62.63;96606.75;5005434;28;20246;-72
2023/12/14 03:09:05;;;;;;;2.50;1.87;;;;;;;10.90;62.69;96608.06;5044076;28;20728;-72
2023/12/14 03:11:30;;;;;;;3.50;2.50;;;;;;;10.88;62.59;96612.66;5041928;28;20924;-72
2023/12/14 03:13:56;;;;;;;2.20;1.87;;;;;;;10.76;62.78;96614.00;5032893;28;20576;-70
2023/12/14 03:16:21;;;;;;;4.63;2.47;;;;;;;10.80;62.95;96623.16;5031504;28;20227;-72
2023/12/14 03:18:49;;;;;;;3.30;2.20;;;;;;;10.84;62.57;96628.88;5027816;28;20216;-71
2023/12/14 03:21:14;;;;;;;2.13;1.80;;;;;;;10.89;62.45;96627.38;5043659;28;20218;-71
2023/12/14 03:23:40;;;;;;;3.70;1.70;;;;;;;10.90;62.42;96636.88;5035325;28;20507;-73
2023/12/14 03:26:05;;;;;;;4.53;1.80;;;;;;;10.87;62.56;96628.56;5044851;28;20230;-72
2023/12/14 03:28:31;;;;;;;2.07;1.80;;;;;;;10.94;62.43;96639.19;5030422;28;20198;-72
2023/12/14 03:30:56;;;;;;;2.63;1.80;;;;;;;10.96;62.43;96642.47;5033704;28;20224;-72
2023/12/14 03:33:22;;;;;;;2.50;1.70;;;;;;;10.99;62.29;96652.59;5026216;28;20215;-70
2023/12/14 03:35:47;;;;;;;10.00;1.70;;;;;;;11.01;62.46;96656.69;5033199;28;20205;-70
2023/12/14 03:38:15;;;;;;;4.07;1.93;;;;;;;10.99;62.62;96655.22;5027393;28;20253;-72
2023/12/14 03:40:41;;;;;;;2.60;1.97;;;;;;;11.00;62.38;96657.69;5035097;28;20270;-72
2023/12/14 03:43:06;;;;;;;2.07;1.77;;;;;;;11.04;62.16;96664.22;5029057;28;20426;-72
2023/12/14 03:45:31;;;;;;;1.80;1.70;;;;;;;11.05;62.09;96673.72;5032399;28;20621;-71
2023/12/14 03:47:57;;;;;;;4.00;2.00;;;;;;;11.05;62.12;96675.53;5026783;28;20188;-73
2023/12/14 03:50:23;;;;;;;1.70;1.60;;;;;;;11.10;62.16;96675.03;5035522;28;20260;-70
2023/12/14 03:52:48;;;;;;;2.70;1.70;;;;;;;11.13;62.06;96674.69;5026875;28;20244;-70
2023/12/14 03:55:15;;;;;;;4.27;2.00;;;;;;;11.08;62.15;96677.81;5040642;28;20683;-72
2023/12/14 03:57:41;;;;;;;2.90;2.00;;;;;;;11.07;61.86;96686.69;5022327;28;20196;-75
2023/12/14 04:00:11;;;;;;;2.13;1.93;;;;;;;11.07;62.16;96689.28;5041374;28;20830;-71
2023/12/14 04:02:36;;;;;;;4.07;2.10;;;;;;;11.04;62.24;96692.25;5022869;28;20920;-72
2023/12/14 04:05:02;;;;;;;2.87;2.30;;;;;;;11.03;62.55;96695.84;5007456;28;20449;-72
2023/12/14 04:07:27;;;;;;;3.60;3.30;;;;;;;11.06;62.46;96703.41;5022657;28;20199;-71
2023/12/14 04:09:53;;;;;;;3.57;2.43;;;;;;;11.01;62.64;96697.81;5016457;28;20247;-72
2023/12/14 04:12:18;;;;;;;4.57;2.70;;;;;;;10.99;62.44;96705.88;5029773;28;20218;-71
2023/12/14 04:14:45;;;;;;;3.53;2.60;;;;;;;11.04;62.73;96707.97;5026577;28;20638;-72
2023/12/14 04:17:11;;;;;;;4.00;2.50;;;;;;;11.09;62.42;96720.59;5021329;28;20240;-73
2023/12/14 04:19:38;;;;;;;3.07;2.83;;;;;;;11.13;62.18;96719.28;5026272;28;20474;-72
2023/12/14 04:22:04;;;;;;;5.73;4.57;;;;;;;11.10;62.08;96724.84;5031883;28;20452;-72
2023/12/14 04:24:30;;;;;;;7.33;5.50;;;;;;;11.13;62.14;96733.19;5033086;28;20613;-74
2023/12/14 04:26:55;;;;;;;6.57;4.57;;;;;;;11.15;61.94;96731.22;5028114;28;20235;-73
2023/12/14 04:29:21;;;;;;;4.57;3.67;;;;;;;11.12;61.95;96744.66;5031747;28;20817;-73
2023/12/14 04:31:46;;;;;;;4.90;3.70;;;;;;;11.13;62.36;96745.50;5024591;28;20216;-71
2023/12/14 04:34:15;;;;;;;3.50;2.80;;;;;;;11.14;62.48;96745.31;5021592;28;20196;-71
2023/12/14 04:36:42;;;;;;;2.97;2.70;;;;;;;11.12;62.67;96749.91;5023417;28;20187;-71
2023/12/14 04:39:07;;;;;;;3.50;2.90;;;;;;;11.07;62.88;96754.84;5016700;28;20470;-73
2023/12/14 04:41:33;;;;;;;3.97;2.90;;;;;;;11.03;63.09;96748.28;5032055;28;20453;-72
2023/12/14 04:43:58;;;;;;;5.33;2.63;;;;;;;11.09;63.39;96752.06;5019484;28;20188;-71
2023/12/14 04:46:24;;;;;;;3.10;2.60;;;;;;;11.09;63.20;96759.91;5026897;28;20191;-72
2023/12/14 04:48:49;;;;;;;3.70;3.20;;;;;;;11.11;63.01;96761.38;5026386;28;20207;-74
2023/12/14 04:51:15;;;;;;;4.43;3.17;;;;;;;11.07;62.97;96765.34;5031911;28;20212;-73
2023/12/14 04:53:40;;;;;;;4.50;3.70;;;;;;;11.10;62.73;96767.63;5011717;28;20192;-71
2023/12/14 04:56:09;;;;;;;3.87;3.57;;;;;;;11.12;62.60;96762.22;5013135;28;20211;-73
2023/12/14 04:58:35;;;;;;;3.43;3.13;;;;;;;11.07;62.42;96770.59;5032420;28;20668;-73
2023/12/14 05:01:00;;;;;;;4.13;3.50;;;;;;;11.10;63.06;96780.72;5014644;28;20538;-73
2023/12/14 05:03:26;;;;;;;6.23;4.40;;;;;;;11.11;63.12;96781.56;5020128;28;20817;-72
2023/12/14 05:05:51;;;;;;;6.43;3.30;;;;;;;11.07;63.17;96783.69;5019883;28;20288;-70
2023/12/14 05:08:16;;;;;;;5.00;4.50;;;;;;;11.06;62.91;96782.88;5017261;28;20219;-71
2023/12/14 05:10:42;;;;;;;4.30;3.90;;;;;;;11.10;62.57;96785.97;5024770;28;20239;-70
2023/12/14 05:13:08;;;;;;;4.30;3.90;;;;;;;11.06;62.78;96795.97;5017696;28;20245;-69
2023/12/14 05:15:34;;;;;;;4.50;4.07;;;;;;;11.05;62.93;96798.78;5035332;28;20566;-72
2023/12/14 05:17:59;;;;;;;5.77;4.47;;;;;;;11.12;62.70;96801.56;5039872;28;20200;-71
2023/12/14 05:20:24;;;;;;;6.73;3.67;;;;;;;11.14;62.75;96797.78;5039999;28;20989;-72
2023/12/14 05:22:50;;;;;;;6.13;3.80;;;;;;;11.17;62.94;96805.31;5032955;28;20674;-69
2023/12/14 05:25:15;;;;;;;8.67;6.17;;;;;;;11.17;62.60;96807.94;5029470;28;20194;-74
2023/12/14 05:27:41;;;;;;;39.30;23.40;;;;;;;11.06;63.29;96810.91;5030349;28;20188;-70
2023/12/14 05:30:07;;;;;;;164.60;71.73;;;;;;;11.09;63.20;96826.28;5034031;28;20207;-70
2023/12/14 05:32:32;;;;;;;146.90;65.73;;;;;;;11.06;63.09;96824.03;5029621;28;20278;-71
2023/12/14 05:34:59;;;;;;;95.40;45.53;;;;;;;11.02;63.60;96826.16;5032495;28;20910;-71
2023/12/14 05:37:25;;;;;;;62.50;33.60;;;;;;;11.04;63.55;96841.72;5030485;28;20191;-70
2023/12/14 05:39:50;;;;;;;25.97;13.73;;;;;;;11.07;63.59;96841.41;5041228;28;20557;-71
2023/12/14 05:42:18;;;;;;;6.50;5.00;;;;;;;11.06;63.65;96848.44;5037985;28;20253;-71
2023/12/14 05:44:47;;;;;;;13.57;8.00;;;;;;;11.09;63.31;96851.72;5028036;28;20187;-71
2023/12/14 05:47:12;;;;;;;19.93;11.20;;;;;;;11.13;63.23;96853.84;5040511;28;20797;-71
2023/12/14 05:49:41;;;;;;;54.57;29.30;;;;;;;11.16;63.29;96864.00;5040626;28;20429;-72
2023/12/14 05:52:07;;;;;;;57.03;30.30;;;;;;;11.15;63.47;96872.84;5041652;28;20195;-72
2023/12/14 05:54:32;;;;;;;79.33;41.57;;;;;;;11.02;63.86;96865.50;5039458;28;20975;-71
2023/12/14 05:56:58;;;;;;;76.13;39.23;;;;;;;11.07;63.96;96865.00;5038115;28;20194;-70
2023/12/14 05:59:23;;;;;;;87.77;45.80;;;;;;;11.12;63.93;96862.69;5037370;28;20298;-72
2023/12/14 06:01:49;;;;;;;170.53;80.10;;;;;;;11.11;63.80;96876.78;5032032;28;20672;-71
2023/12/14 06:04:14;;;;;;;261.30;122.40;;;;;;;11.08;63.78;96877.13;5039854;28;20665;-71
2023/12/14 06:06:40;;;;;;;252.37;120.77;;;;;;;11.09;63.86;96884.00;5040484;28;20634;-73
2023/12/14 06:09:08;;;;;;;173.57;86.07;;;;;;;11.10;64.08;96884.81;5034687;28;20179;-72
2023/12/14 06:11:34;;;;;;;140.10;66.90;;;;;;;11.12;64.12;96894.16;5025318;28;20207;-73
2023/12/14 06:13:59;;;;;;;116.13;56.93;;;;;;;11.14;63.89;96892.19;5040907;28;20499;-72
2023/12/14 06:16:25;;;;;;;102.53;49.33;;;;;;;11.17;63.82;96902.38;5034731;28;20641;-72
2023/12/14 06:18:50;;;;;;;79.67;42.87;;;;;;;11.17;64.07;96902.38;5030129;28;20223;-70
2023/12/14 06:21:16;;;;;;;34.00;19.00;;;;;;;11.17;63.94;96899.75;5037232;28;20210;-70
2023/12/14 06:23:41;;;;;;;9.80;7.87;;;;;;;11.20;63.79;96904.66;5029184;28;20267;-71
2023/12/14 06:26:07;;;;;;;10.00;6.90;;;;;;;11.26;64.02;96907.59;5032890;28;20835;-71
2023/12/14 06:28:32;;;;;;;9.70;6.70;;;;;;;11.21;63.74;96908.09;5032345;28;20624;-71
2023/12/14 06:30:58;;;;;;;9.90;7.50;;;;;;;11.24;63.68;96913.03;5030699;28;20208;-73
2023/12/14 06:33:23;;;;;;;10.90;8.00;;;;;;;11.24;63.73;96915.66;5034895;28;20196;-72
2023/12/14 06:35:49;;;;;;;8.53;6.50;;;;;;;11.24;63.88;96922.69;5035751;28;20277;-72
2023/12/14 06:38:15;;;;;;;6.80;5.93;;;;;;;11.22;63.55;96923.66;5029050;28;20194;-72
2023/12/14 06:40:40;;;;;;;7.50;5.80;;;;;;;11.24;63.77;96928.75;5027651;28;20846;-71
2023/12/14 06:43:06;;;;;;;5.60;4.70;;;;;;;11.18;63.34;96939.91;5029384;28;20188;-73
2023/12/14 06:45:31;;;;;;;5.20;4.70;;;;;;;11.13;63.59;96943.00;5029176;28;20190;-73
2023/12/14 06:47:57;;;;;;;8.17;4.57;;;;;;;11.16;63.65;96942.69;5042078;28;20238;-72
2023/12/14 06:50:22;;;;;;;29.10;17.07;;;;;;;11.04;64.14;96955.28;5040428;28;20242;-73
2023/12/14 06:52:47;;;;;;;77.43;42.70;;;;;;;11.01;64.26;96950.38;5040041;28;20277;-72
2023/12/14 06:55:14;;;;;;;55.33;30.67;;;;;;;11.08;64.11;96961.06;5022324;28;20275;-71
2023/12/14 06:57:42;;;;;;;31.63;19.23;;;;;;;11.10;64.32;96964.31;5030766;28;20199;-74
2023/12/14 07:00:09;;;;;;;31.37;18.80;;;;;;;11.04;64.21;96971.00;5032390;28;20472;-71
2023/12/14 07:02:34;;;;;;;46.13;28.00;;;;;;;11.11;64.17;96983.50;5037887;28;20802;-70
2023/12/14 07:05:00;;;;;;;45.07;25.73;;;;;;;11.09;64.27;96993.31;5037455;28;20438;-72
2023/12/14 07:07:25;;;;;;;26.07;16.73;;;;;;;11.11;64.52;96997.41;5038588;28;20196;-72
2023/12/14 07:09:51;;;;;;;11.60;9.27;;;;;;;11.07;64.04;96999.56;5039586;28;20207;-70
2023/12/14 07:12:17;;;;;;;46.13;24.97;;;;;;;11.02;64.46;97003.63;5033873;28;20270;-72
2023/12/14 07:14:43;;;;;;;16.27;11.00;;;;;;;11.02;64.71;97024.63;5035814;28;20607;-72
2023/12/14 07:17:08;;;;;;;14.50;9.80;;;;;;;11.06;64.27;97025.94;5036637;28;20441;-72
2023/12/14 07:19:35;;;;;;;12.13;7.80;;;;;;;11.06;64.75;97031.19;5042764;28;20213;-72
2023/12/14 07:22:01;;;;;;;11.20;6.80;;;;;;;11.10;64.75;97031.69;5034320;28;20261;-70
2023/12/14 07:24:26;;;;;;;14.00;9.17;;;;;;;10.96;64.85;97035.75;5044917;28;20433;-71
2023/12/14 07:26:51;;;;;;;15.50;10.43;;;;;;;10.97;65.11;97042.63;5043474;28;20604;-70
2023/12/14 07:29:17;;;;;;;14.63;10.40;;;;;;;11.04;65.13;97048.88;5046859;28;20195;-72
2023/12/14 07:31:42;;;;;;;12.80;10.33;;;;;;;11.03;65.02;97048.03;5035209;28;20215;-72
2023/12/14 07:34:08;;;;;;;9.90;8.77;;;;;;;11.05;65.16;97051.34;5044187;28;20183;-70
2023/12/14 07:36:34;;;;;;;12.47;9.60;;;;;;;11.08;65.01;97050.22;5038403;28;20191;-70
2023/12/14 07:39:01;;;;;;;15.57;10.10;;;;;;;11.12;64.81;97058.59;5038987;28;20219;-72
2023/12/14 07:41:29;;;;;;;8.90;7.60;;;;;;;11.08;64.96;97060.72;5039996;28;20251;-72
2023/12/14 07:43:55;;;;;;;11.60;7.80;;;;;;;11.03;65.14;97063.78;5036832;28;20844;-70
2023/12/14 07:46:21;;;;;;;8.80;7.13;;;;;;;11.04;64.92;97064.63;5027873;28;21013;-72
2023/12/14 07:48:47;;;;;;;9.60;6.37;;;;;;;10.96;65.28;97072.47;5025054;28;20484;-71
2023/12/14 07:51:12;;;;;;;7.27;6.30;;;;;;;11.02;64.91;97071.81;5036259;28;20465;-71
2023/12/14 07:53:38;;;;;;;11.53;6.33;;;;;;;11.05;64.88;97082.00;5027351;28;20183;-70
2023/12/14 07:56:04;;;;;;;8.70;6.27;;;;;;;11.06;64.93;97084.44;5034517;28;20238;-71
2023/12/14 07:58:29;;;;;;;9.53;7.70;;;;;;;11.07;65.01;97087.91;5038265;28;20199;-70
2023/12/14 08:00:55;;;;;;;9.97;7.80;;;;;;;11.15;64.89;97087.13;5028369;28;20627;-72
2023/12/14 08:03:20;;;;;;;13.50;7.43;;;;;;;11.16;64.68;97089.56;5038845;28;20356;-72
2023/12/14 08:05:46;;;;;;;13.63;7.43;;;;;;;11.06;64.83;97089.69;5026150;28;20271;-70
2023/12/14 08:08:11;;;;;;;10.17;7.13;;;;;;;11.15;64.85;97087.94;5027234;28;20195;-72
2023/12/14 08:10:36;;;;;;;16.43;9.90;;;;;;;11.24;64.84;97093.19;5030992;28;20650;-71
2023/12/14 08:13:02;;;;;;;25.33;10.40;;;;;;;11.21;64.80;97099.59;5019586;28;20216;-71
2023/12/14 08:15:27;;;;;;;19.73;9.27;;;;;;;11.25;64.30;97107.97;5043624;28;20198;-72
2023/12/14 08:17:53;;;;;;;14.90;8.10;;;;;;;11.28;64.46;97112.91;5044653;28;20448;-69
2023/12/14 08:20:18;;;;;;;12.50;6.47;;;;;;;11.24;64.26;97116.81;5037584;28;20295;-72
2023/12/14 08:22:44;;;;;;;7.50;4.57;;;;;;;11.24;63.96;97122.06;5038079;28;20187;-72
2023/12/14 08:25:16;;;;;;;10.43;4.00;;;;;;;11.32;63.95;97132.59;5038278;28;20218;-71
2023/12/14 08:27:42;;;;;;;7.67;4.87;;;;;;;11.29;63.58;97138.16;5047507;28;20196;-72
2023/12/14 08:30:08;;;;;;;9.73;4.90;;;;;;;11.27;63.62;97145.34;5035251;28;20443;-70
2023/12/14 08:32:34;;;;;;;6.30;4.83;;;;;;;11.26;64.20;97141.09;5043632;28;20465;-72
2023/12/14 08:34:59;;;;;;;8.53;5.13;;;;;;;11.31;63.69;97142.25;5030197;28;20447;-72
2023/12/14 08:37:25;;;;;;;10.40;5.00;;;;;;;11.37;63.91;97153.91;5029601;28;20611;-71
2023/12/14 08:39:50;;;;;;;5.73;4.60;;;;;;;11.30;63.51;97147.66;5036848;28;20767;-71
2023/12/14 08:42:16;;;;;;;4.90;3.87;;;;;;;11.32;63.98;97158.84;5037504;28;20243;-71
2023/12/14 08:44:41;;;;;;;8.30;4.60;;;;;;;11.30;64.06;97158.16;5028409;28;20234;-71
2023/12/14 08:47:08;;;;;;;5.87;3.93;;;;;;;11.44;64.45;97170.69;5037269;28;20198;-74
2023/12/14 08:49:34;;;;;;;7.97;5.10;;;;;;;11.55;64.38;97176.63;5037340;28;20192;-70
2023/12/14 08:52:00;;;;;;;6.33;4.83;;;;;;;11.62;64.41;97181.06;5031917;28;20442;-71
2023/12/14 08:54:26;;;;;;;4.67;4.27;;;;;;;11.76;64.34;97190.13;5030866;28;20434;-71
2023/12/14 08:56:52;;;;;;;3.90;3.47;;;;;;;11.86;63.82;97205.75;5036801;28;20187;-69
2023/12/14 08:59:19;;;;;;;5.00;4.10;;;;;;;11.86;62.93;97207.53;5028485;28;20295;-72
2023/12/14 09:01:44;;;;;;;5.93;4.80;;;;;;;11.90;63.21;97219.38;5042514;28;20664;-71
2023/12/14 09:04:10;;;;;;;11.10;5.40;;;;;;;11.93;63.12;97216.44;5031993;28;20524;-72
2023/12/14 09:06:35;;;;;;;6.27;4.80;;;;;;;11.96;62.92;97219.56;5028059;28;20220;-70
2023/12/14 09:09:01;;;;;;;6.93;5.00;;;;;;;11.98;62.93;97220.25;5038743;28;20227;-72
2023/12/14 09:11:26;;;;;;;6.50;4.73;;;;;;;12.03;62.76;97225.03;5038193;28;20223;-71
2023/12/14 09:13:52;;;;;;;7.00;5.33;;;;;;;11.96;62.66;97231.88;5020577;28;20311;-70
2023/12/14 09:16:17;;;;;;;8.20;5.10;;;;;;;11.97;62.87;97236.97;5040857;28;20694;-71
2023/12/14 09:18:42;;;;;;;6.80;5.17;;;;;;;11.97;62.67;97244.03;5028845;28;20203;-72
2023/12/14 09:21:08;;;;;;;8.93;6.60;;;;;;;11.96;62.88;97245.00;5041546;28;20290;-71
2023/12/14 09:23:33;;;;;;;9.30;6.57;;;;;;;11.93;62.55;97243.50;5028520;28;20687;-69
2023/12/14 09:25:59;;;;;;;6.97;5.73;;;;;;;11.91;62.64;97250.72;5028146;28;20189;-73
2023/12/14 09:28:25;;;;;;;7.07;5.87;;;;;;;11.91;62.88;97257.78;5027954;28;20231;-72
2023/12/14 09:30:50;;;;;;;7.07;6.20;;;;;;;11.94;62.82;97260.09;5029299;28;20229;-71
2023/12/14 09:33:16;;;;;;;7.07;6.37;;;;;;;11.92;62.83;97265.50;5030387;28;20510;-71
2023/12/14 09:35:42;;;;;;;6.90;6.20;;;;;;;11.98;63.26;97269.31;5035789;28;20191;-73
2023/12/14 09:38:08;;;;;;;9.37;6.10;;;;;;;12.00;63.04;97270.00;5028217;28;20187;-71
2023/12/14 09:40:34;;;;;;;7.80;6.60;;;;;;;12.02;62.81;97264.59;5032946;28;20463;-72
2023/12/14 09:43:00;;;;;;;8.90;6.90;;;;;;;12.08;62.76;97275.28;5032720;28;20191;-70
2023/12/14 09:45:29;;;;;;;8.13;6.77;;;;;;;12.11;62.78;97276.75;5033968;28;20561;-71
2023/12/14 09:47:57;;;;;;;8.90;7.27;;;;;;;12.16;62.97;97278.91;5023869;28;20572;-71
2023/12/14 09:50:23;;;;;;;18.50;7.30;;;;;;;12.18;63.16;97284.81;5034068;28;20450;-71
2023/12/14 09:52:49;;;;;;;8.67;6.27;;;;;;;12.19;63.38;97289.09;5038545;28;20430;-71
2023/12/14 09:55:15;;;;;;;8.50;6.73;;;;;;;12.26;63.55;97290.09;5036941;28;21023;-71
2023/12/14 09:57:41;;;;;;;7.20;6.00;;;;;;;12.35;63.13;97298.81;5038248;28;20195;-71
2023/12/14 10:00:13;;;;;;;7.00;6.20;;;;;;;12.38;63.24;97304.56;5032745;28;20476;-71
2023/12/14 10:02:39;;;;;;;8.77;6.70;;;;;;;12.48;62.85;97306.22;5026621;28;20734;-72
2023/12/14 10:05:09;;;;;;;8.00;7.20;;;;;;;12.64;62.95;97303.63;5034950;28;20430;-71
2023/12/14 10:07:41;;;;;;;8.83;7.37;;;;;;;12.82;62.62;97308.72;5027700;28;20187;-72
2023/12/14 10:10:13;;;;;;;7.97;6.80;;;;;;;13.10;62.33;97308.41;5040442;28;20452;-72
2023/12/14 10:12:52;;;;;;;7.90;6.70;;;;;;;13.28;61.57;97323.19;5041105;28;20469;-72
2023/12/14 10:15:18;;;;;;;10.23;7.27;;;;;;;13.25;60.58;97321.69;5035895;28;20436;-72
2023/12/14 10:17:43;;;;;;;8.50;7.07;;;;;;;13.20;60.50;97322.19;5029971;28;20438;-71
2023/12/14 10:20:09;;;;;;;8.77;7.53;;;;;;;13.18;60.13;97320.72;5039456;28;20331;-71
2023/12/14 10:22:37;;;;;;;8.63;6.60;;;;;;;13.12;60.63;97321.38;5036077;28;20198;-71
2023/12/14 10:25:03;;;;;;;7.37;6.33;;;;;;;13.04;60.29;97325.66;5037887;28;20203;-71
2023/12/14 10:27:28;;;;;;;10.27;7.00;;;;;;;12.98;60.63;97320.25;5036858;28;20744;-70
2023/12/14 10:29:55;;;;;;;7.60;6.23;;;;;;;12.84;60.41;97321.72;5029889;28;20187;-71
2023/12/14 10:32:21;;;;;;;6.67;6.07;;;;;;;12.85;59.78;97323.38;5044063;28;20656;-72
2023/12/14 10:34:47;;;;;;;6.83;5.93;;;;;;;12.78;59.53;97312.69;5030356;28;20430;-71
2023/12/14 10:37:13;;;;;;;9.53;6.30;;;;;;;12.75;59.95;97319.06;5045212;28;20636;-72
2023/12/14 10:39:41;;;;;;;7.67;6.07;;;;;;;12.81;59.92;97324.69;5046153;28;20207;-71
2023/12/14 10:42:08;;;;;;;8.50;6.03;;;;;;;12.91;60.68;97335.84;5042446;28;20440;-73
2023/12/14 10:44:36;;;;;;;9.80;6.70;;;;;;;13.02;60.29;97337.34;5045053;28;20584;-72
2023/12/14 10:47:04;;;;;;;5.23;4.53;;;;;;;13.09;59.86;97343.59;5033667;28;20838;-71
2023/12/14 10:49:29;;;;;;;6.83;4.63;;;;;;;13.08;59.98;97346.41;5048519;28;20528;-71
2023/12/14 10:51:57;;;;;;;6.33;4.73;;;;;;;13.06;59.46;97347.38;5042524;28;21234;-71
2023/12/14 10:54:24;;;;;;;6.80;5.37;;;;;;;13.06;59.97;97355.28;5037887;28;20785;-72
2023/12/14 10:56:50;;;;;;;10.30;6.13;;;;;;;13.05;59.74;97351.00;5034508;28;20972;-72
2023/12/14 10:59:18;;;;;;;6.30;5.27;;;;;;;13.06;59.86;97355.28;5038461;28;20502;-71
2023/12/14 11:01:44;;;;;;;5.23;4.63;;;;;;;13.08;60.21;97362.19;5031340;28;20278;-72
2023/12/14 11:04:15;;;;;;;5.30;4.57;;;;;;;13.10;60.34;97368.91;5040451;28;20437;-72
2023/12/14 11:06:42;;;;;;;6.87;5.57;;;;;;;13.13;60.27;97359.88;5047685;28;20199;-71
2023/12/14 11:09:10;;;;;;;6.90;5.53;;;;;;;13.20;60.77;97371.38;5041129;28;20438;-70
2023/12/14 11:11:56;;;;;;;8.80;5.30;;;;;;;13.33;60.71;97360.34;5044730;28;20461;-70
2023/12/14 11:14:22;;;;;;;9.57;5.67;;;;;;;13.45;60.15;97366.13;5029364;28;20882;-71
2023/12/14 11:16:48;;;;;;;6.50;4.80;;;;;;;13.86;59.78;97359.97;5041505;28;20464;-71
2023/12/14 11:19:25;;;;;;;5.43;4.90;;;;;;;14.49;58.44;97360.03;5037436;28;20466;-70
2023/12/14 11:21:55;;;;;;;5.40;4.30;;;;;;;15.28;56.92;97359.00;5040489;28;20261;-70
2023/12/14 11:24:21;;;;;;;7.90;4.20;;;;;;;15.91;54.48;97361.38;5031859;28;20533;-71